sensor_id;sensor_type;location;lat;lon;timestamp;P1;durP1;ratioP1;P2;durP2;ratioP2
1747;SDS011;871;47.034;15.394;2022-08-06T00:02:14;49.47;;;12.40;;
1747;SDS011;871;47.034;15.394;2022-08-06T00:04:40;48.03;;;11.63;;
1747;SDS011;871;47.034;15.394;2022-08-06T00:07:09;48.33;;;10.87;;
1747;SDS011;871;47.034;15.394;2022-08-06T00:09:35;48.00;;;11.57;;
1747;SDS011;871;47.034;15.394;2022-08-06T00:12:01;49.67;;;11.23;;
1747;SDS011;871;47.034;15.394;2022-08-06T00:14:28;50.53;;;12.90;;
1747;SDS011;871;47.034;15.394;2022-08-06T00:16:55;50.40;;;12.33;;
1747;SDS011;871;47.034;15.394;2022-08-06T00:19:21;48.47;;;11.20;;
1747;SDS011;871;47.034;15.394;2022-08-06T00:21:47;47.17;;;10.67;;
1747;SDS011;871;47.034;15.394;2022-08-06T00:24:13;49.43;;;11.40;;
1747;SDS011;871;47.034;15.394;2022-08-06T00:26:39;50.13;;;11.60;;
1747;SDS011;871;47.034;15.394;2022-08-06T00:29:06;51.10;;;12.20;;
1747;SDS011;871;47.034;15.394;2022-08-06T00:31:32;47.73;;;11.03;;
1747;SDS011;871;47.034;15.394;2022-08-06T00:33:58;48.87;;;11.43;;
1747;SDS011;871;47.034;15.394;2022-08-06T00:36:30;48.40;;;11.97;;
1747;SDS011;871;47.034;15.394;2022-08-06T00:38:57;50.20;;;12.00;;
1747;SDS011;871;47.034;15.394;2022-08-06T00:41:23;47.17;;;10.47;;
1747;SDS011;871;47.034;15.394;2022-08-06T00:43:50;47.97;;;10.93;;
1747;SDS011;871;47.034;15.394;2022-08-06T00:46:16;47.33;;;10.57;;
1747;SDS011;871;47.034;15.394;2022-08-06T00:48:42;48.57;;;11.27;;
1747;SDS011;871;47.034;15.394;2022-08-06T00:51:10;48.07;;;10.87;;
1747;SDS011;871;47.034;15.394;2022-08-06T00:53:36;47.17;;;9.93;;
1747;SDS011;871;47.034;15.394;2022-08-06T00:56:02;47.10;;;9.87;;
1747;SDS011;871;47.034;15.394;2022-08-06T00:58:29;48.00;;;11.23;;
1747;SDS011;871;47.034;15.394;2022-08-06T01:00:55;52.50;;;10.57;;
1747;SDS011;871;47.034;15.394;2022-08-06T01:03:21;47.80;;;10.83;;
1747;SDS011;871;47.034;15.394;2022-08-06T01:05:47;47.93;;;10.23;;
1747;SDS011;871;47.034;15.394;2022-08-06T01:08:15;47.17;;;10.40;;
1747;SDS011;871;47.034;15.394;2022-08-06T01:10:41;47.87;;;9.90;;
1747;SDS011;871;47.034;15.394;2022-08-06T01:13:08;49.30;;;10.60;;
1747;SDS011;871;47.034;15.394;2022-08-06T01:15:36;47.70;;;10.83;;
1747;SDS011;871;47.034;15.394;2022-08-06T01:30:52;47.80;;;8.30;;
1747;SDS011;871;47.034;15.394;2022-08-06T01:33:26;46.73;;;8.67;;
1747;SDS011;871;47.034;15.394;2022-08-06T01:35:54;46.83;;;8.13;;
1747;SDS011;871;47.034;15.394;2022-08-06T01:38:23;46.17;;;9.13;;
1747;SDS011;871;47.034;15.394;2022-08-06T01:40:51;46.30;;;9.07;;
1747;SDS011;871;47.034;15.394;2022-08-06T01:43:19;46.33;;;7.97;;
1747;SDS011;871;47.034;15.394;2022-08-06T01:45:45;45.67;;;8.40;;
1747;SDS011;871;47.034;15.394;2022-08-06T01:48:13;47.33;;;9.27;;
1747;SDS011;871;47.034;15.394;2022-08-06T01:50:41;46.57;;;9.30;;
1747;SDS011;871;47.034;15.394;2022-08-06T01:53:08;54.63;;;10.43;;
1747;SDS011;871;47.034;15.394;2022-08-06T01:55:44;48.37;;;10.63;;
1747;SDS011;871;47.034;15.394;2022-08-06T01:58:11;49.83;;;11.50;;
1747;SDS011;871;47.034;15.394;2022-08-06T02:00:40;48.00;;;10.40;;
1747;SDS011;871;47.034;15.394;2022-08-06T02:03:10;48.60;;;10.90;;
1747;SDS011;871;47.034;15.394;2022-08-06T02:05:37;46.93;;;9.73;;
1747;SDS011;871;47.034;15.394;2022-08-06T02:08:04;54.53;;;11.83;;
1747;SDS011;871;47.034;15.394;2022-08-06T02:10:31;48.10;;;11.10;;
1747;SDS011;871;47.034;15.394;2022-08-06T02:12:59;51.03;;;12.00;;
1747;SDS011;871;47.034;15.394;2022-08-06T02:15:27;49.20;;;11.23;;
1747;SDS011;871;47.034;15.394;2022-08-06T02:17:56;49.13;;;11.37;;
1747;SDS011;871;47.034;15.394;2022-08-06T02:20:26;49.50;;;12.13;;
1747;SDS011;871;47.034;15.394;2022-08-06T02:22:53;53.17;;;11.40;;
1747;SDS011;871;47.034;15.394;2022-08-06T02:25:20;50.80;;;12.00;;
1747;SDS011;871;47.034;15.394;2022-08-06T02:27:48;46.80;;;9.67;;
1747;SDS011;871;47.034;15.394;2022-08-06T02:30:14;47.90;;;9.97;;
1747;SDS011;871;47.034;15.394;2022-08-06T02:32:44;47.70;;;8.90;;
1747;SDS011;871;47.034;15.394;2022-08-06T02:35:10;45.13;;;7.57;;
1747;SDS011;871;47.034;15.394;2022-08-06T02:37:41;45.13;;;7.90;;
1747;SDS011;871;47.034;15.394;2022-08-06T02:40:09;46.10;;;7.43;;
1747;SDS011;871;47.034;15.394;2022-08-06T02:42:42;48.57;;;8.27;;
1747;SDS011;871;47.034;15.394;2022-08-06T02:45:25;45.33;;;7.70;;
1747;SDS011;871;47.034;15.394;2022-08-06T02:48:04;46.20;;;8.40;;
1747;SDS011;871;47.034;15.394;2022-08-06T02:50:38;45.80;;;7.83;;
1747;SDS011;871;47.034;15.394;2022-08-06T02:53:06;45.37;;;7.67;;
1747;SDS011;871;47.034;15.394;2022-08-06T02:55:34;44.63;;;7.40;;
1747;SDS011;871;47.034;15.394;2022-08-06T03:00:32;47.40;;;8.27;;
1747;SDS011;871;47.034;15.394;2022-08-06T03:02:59;45.83;;;8.50;;
1747;SDS011;871;47.034;15.394;2022-08-06T03:05:25;45.90;;;7.70;;
1747;SDS011;871;47.034;15.394;2022-08-06T03:07:54;44.77;;;7.30;;
1747;SDS011;871;47.034;15.394;2022-08-06T03:10:22;44.50;;;7.50;;
1747;SDS011;871;47.034;15.394;2022-08-06T03:12:48;45.00;;;7.00;;
1747;SDS011;871;47.034;15.394;2022-08-06T03:15:18;44.33;;;6.50;;
1747;SDS011;871;47.034;15.394;2022-08-06T03:17:45;47.80;;;7.10;;
1747;SDS011;871;47.034;15.394;2022-08-06T03:20:13;44.53;;;7.17;;
1747;SDS011;871;47.034;15.394;2022-08-06T03:22:40;46.80;;;7.13;;
1747;SDS011;871;47.034;15.394;2022-08-06T03:25:07;46.07;;;7.70;;
1747;SDS011;871;47.034;15.394;2022-08-06T03:27:36;44.40;;;6.87;;
1747;SDS011;871;47.034;15.394;2022-08-06T03:30:03;44.97;;;7.43;;
1747;SDS011;871;47.034;15.394;2022-08-06T03:32:30;45.57;;;6.17;;
1747;SDS011;871;47.034;15.394;2022-08-06T03:34:58;44.60;;;6.90;;
1747;SDS011;871;47.034;15.394;2022-08-06T03:37:25;45.50;;;6.07;;
1747;SDS011;871;47.034;15.394;2022-08-06T03:39:51;44.60;;;6.63;;
1747;SDS011;871;47.034;15.394;2022-08-06T03:42:17;43.40;;;6.43;;
1747;SDS011;871;47.034;15.394;2022-08-06T03:44:43;46.00;;;7.77;;
1747;SDS011;871;47.034;15.394;2022-08-06T03:47:12;44.60;;;7.00;;
1747;SDS011;871;47.034;15.394;2022-08-06T03:49:45;45.60;;;7.90;;
1747;SDS011;871;47.034;15.394;2022-08-06T03:52:16;44.87;;;7.27;;
1747;SDS011;871;47.034;15.394;2022-08-06T03:54:44;44.90;;;6.97;;
1747;SDS011;871;47.034;15.394;2022-08-06T03:57:11;44.47;;;6.47;;
1747;SDS011;871;47.034;15.394;2022-08-06T03:59:39;44.37;;;6.53;;
1747;SDS011;871;47.034;15.394;2022-08-06T04:02:06;43.23;;;6.00;;
1747;SDS011;871;47.034;15.394;2022-08-06T04:04:32;44.40;;;6.67;;
1747;SDS011;871;47.034;15.394;2022-08-06T04:06:58;45.30;;;5.63;;
1747;SDS011;871;47.034;15.394;2022-08-06T04:09:26;46.70;;;6.27;;
1747;SDS011;871;47.034;15.394;2022-08-06T04:11:53;44.53;;;5.90;;
1747;SDS011;871;47.034;15.394;2022-08-06T04:14:19;43.67;;;6.00;;
1747;SDS011;871;47.034;15.394;2022-08-06T04:16:45;43.37;;;5.70;;
1747;SDS011;871;47.034;15.394;2022-08-06T04:19:13;46.20;;;5.87;;
1747;SDS011;871;47.034;15.394;2022-08-06T04:21:43;45.33;;;6.10;;
1747;SDS011;871;47.034;15.394;2022-08-06T04:24:09;43.63;;;5.90;;
1747;SDS011;871;47.034;15.394;2022-08-06T04:26:35;44.87;;;6.20;;
1747;SDS011;871;47.034;15.394;2022-08-06T04:29:02;43.73;;;5.33;;
1747;SDS011;871;47.034;15.394;2022-08-06T04:31:29;44.23;;;5.60;;
1747;SDS011;871;47.034;15.394;2022-08-06T04:33:57;50.33;;;5.73;;
1747;SDS011;871;47.034;15.394;2022-08-06T04:36:24;43.70;;;6.00;;
1747;SDS011;871;47.034;15.394;2022-08-06T04:38:50;45.30;;;5.23;;
1747;SDS011;871;47.034;15.394;2022-08-06T04:41:16;43.53;;;5.77;;
1747;SDS011;871;47.034;15.394;2022-08-06T04:43:43;43.20;;;5.67;;
1747;SDS011;871;47.034;15.394;2022-08-06T04:46:09;42.93;;;5.33;;
1747;SDS011;871;47.034;15.394;2022-08-06T04:48:35;43.90;;;5.30;;
1747;SDS011;871;47.034;15.394;2022-08-06T04:51:02;43.07;;;5.43;;
1747;SDS011;871;47.034;15.394;2022-08-06T04:53:28;44.50;;;5.20;;
1747;SDS011;871;47.034;15.394;2022-08-06T04:56:00;42.63;;;5.20;;
1747;SDS011;871;47.034;15.394;2022-08-06T04:58:26;42.97;;;5.20;;
1747;SDS011;871;47.034;15.394;2022-08-06T05:00:52;42.93;;;5.30;;
1747;SDS011;871;47.034;15.394;2022-08-06T05:03:18;41.93;;;4.07;;
1747;SDS011;871;47.034;15.394;2022-08-06T05:05:46;42.97;;;4.93;;
1747;SDS011;871;47.034;15.394;2022-08-06T05:08:13;42.97;;;4.83;;
1747;SDS011;871;47.034;15.394;2022-08-06T05:11:13;43.20;;;4.77;;
1747;SDS011;871;47.034;15.394;2022-08-06T05:13:34;43.10;;;5.00;;
1747;SDS011;871;47.034;15.394;2022-08-06T05:16:02;43.53;;;4.97;;
1747;SDS011;871;47.034;15.394;2022-08-06T05:18:30;42.13;;;3.97;;
1747;SDS011;871;47.034;15.394;2022-08-06T05:20:58;42.70;;;4.30;;
1747;SDS011;871;47.034;15.394;2022-08-06T05:23:48;41.87;;;4.10;;
1747;SDS011;871;47.034;15.394;2022-08-06T05:26:12;42.07;;;4.50;;
1747;SDS011;871;47.034;15.394;2022-08-06T05:28:39;42.17;;;3.70;;
1747;SDS011;871;47.034;15.394;2022-08-06T05:31:05;42.13;;;4.10;;
1747;SDS011;871;47.034;15.394;2022-08-06T05:33:32;42.00;;;4.33;;
1747;SDS011;871;47.034;15.394;2022-08-06T05:36:01;41.57;;;3.20;;
1747;SDS011;871;47.034;15.394;2022-08-06T05:38:27;41.40;;;3.20;;
1747;SDS011;871;47.034;15.394;2022-08-06T05:40:53;41.97;;;3.37;;
1747;SDS011;871;47.034;15.394;2022-08-06T05:43:24;41.83;;;3.30;;
1747;SDS011;871;47.034;15.394;2022-08-06T05:45:51;41.93;;;3.77;;
1747;SDS011;871;47.034;15.394;2022-08-06T05:48:18;41.83;;;3.37;;
1747;SDS011;871;47.034;15.394;2022-08-06T05:50:52;42.50;;;3.13;;
1747;SDS011;871;47.034;15.394;2022-08-06T05:53:25;41.40;;;3.13;;
1747;SDS011;871;47.034;15.394;2022-08-06T05:58:20;40.97;;;3.00;;
1747;SDS011;871;47.034;15.394;2022-08-06T06:00:48;41.00;;;2.77;;
1747;SDS011;871;47.034;15.394;2022-08-06T06:03:16;41.37;;;2.87;;
1747;SDS011;871;47.034;15.394;2022-08-06T06:05:43;41.37;;;3.40;;
1747;SDS011;871;47.034;15.394;2022-08-06T06:08:09;41.70;;;2.93;;
1747;SDS011;871;47.034;15.394;2022-08-06T06:10:36;42.43;;;3.23;;
1747;SDS011;871;47.034;15.394;2022-08-06T06:13:03;41.20;;;3.10;;
1747;SDS011;871;47.034;15.394;2022-08-06T06:15:30;41.07;;;2.57;;
1747;SDS011;871;47.034;15.394;2022-08-06T06:20:35;41.30;;;2.97;;
1747;SDS011;871;47.034;15.394;2022-08-06T06:25:55;41.70;;;3.23;;
1747;SDS011;871;47.034;15.394;2022-08-06T06:28:29;41.17;;;2.90;;
1747;SDS011;871;47.034;15.394;2022-08-06T06:33:25;41.10;;;3.23;;
1747;SDS011;871;47.034;15.394;2022-08-06T06:35:56;43.87;;;2.93;;
1747;SDS011;871;47.034;15.394;2022-08-06T06:38:31;41.60;;;2.67;;
1747;SDS011;871;47.034;15.394;2022-08-06T06:41:12;42.90;;;2.80;;
1747;SDS011;871;47.034;15.394;2022-08-06T06:43:45;41.17;;;3.00;;
1747;SDS011;871;47.034;15.394;2022-08-06T06:46:17;41.10;;;2.87;;
1747;SDS011;871;47.034;15.394;2022-08-06T06:48:53;41.90;;;2.73;;
1747;SDS011;871;47.034;15.394;2022-08-06T06:51:33;41.60;;;2.77;;
1747;SDS011;871;47.034;15.394;2022-08-06T06:53:59;41.40;;;2.67;;
1747;SDS011;871;47.034;15.394;2022-08-06T06:56:26;43.17;;;3.20;;
1747;SDS011;871;47.034;15.394;2022-08-06T06:59:02;41.43;;;3.40;;
1747;SDS011;871;47.034;15.394;2022-08-06T07:01:28;41.93;;;3.10;;
1747;SDS011;871;47.034;15.394;2022-08-06T07:04:00;41.27;;;3.00;;
1747;SDS011;871;47.034;15.394;2022-08-06T07:06:28;41.90;;;2.80;;
1747;SDS011;871;47.034;15.394;2022-08-06T07:08:54;41.43;;;3.03;;
1747;SDS011;871;47.034;15.394;2022-08-06T07:11:23;40.97;;;2.43;;
1747;SDS011;871;47.034;15.394;2022-08-06T07:13:50;41.13;;;2.80;;
1747;SDS011;871;47.034;15.394;2022-08-06T07:16:19;40.90;;;2.50;;
1747;SDS011;871;47.034;15.394;2022-08-06T07:18:46;40.50;;;2.70;;
1747;SDS011;871;47.034;15.394;2022-08-06T07:21:13;40.80;;;2.13;;
1747;SDS011;871;47.034;15.394;2022-08-06T07:23:39;42.27;;;3.10;;
1747;SDS011;871;47.034;15.394;2022-08-06T07:26:06;40.83;;;2.60;;
1747;SDS011;871;47.034;15.394;2022-08-06T07:28:32;40.70;;;2.57;;
1747;SDS011;871;47.034;15.394;2022-08-06T07:31:02;41.20;;;3.13;;
1747;SDS011;871;47.034;15.394;2022-08-06T07:33:29;40.83;;;2.50;;
1747;SDS011;871;47.034;15.394;2022-08-06T07:35:55;40.80;;;2.77;;
1747;SDS011;871;47.034;15.394;2022-08-06T07:38:23;41.70;;;2.30;;
1747;SDS011;871;47.034;15.394;2022-08-06T07:40:52;41.53;;;2.97;;
1747;SDS011;871;47.034;15.394;2022-08-06T07:45:44;41.03;;;2.70;;
1747;SDS011;871;47.034;15.394;2022-08-06T07:48:11;41.60;;;2.47;;
1747;SDS011;871;47.034;15.394;2022-08-06T07:50:39;40.90;;;2.40;;
1747;SDS011;871;47.034;15.394;2022-08-06T07:53:06;42.00;;;3.43;;
1747;SDS011;871;47.034;15.394;2022-08-06T07:55:32;41.33;;;2.87;;
1747;SDS011;871;47.034;15.394;2022-08-06T07:57:58;41.20;;;3.00;;
1747;SDS011;871;47.034;15.394;2022-08-06T08:00:26;41.27;;;2.30;;
1747;SDS011;871;47.034;15.394;2022-08-06T08:02:54;41.00;;;3.20;;
1747;SDS011;871;47.034;15.394;2022-08-06T08:05:39;41.00;;;2.87;;
1747;SDS011;871;47.034;15.394;2022-08-06T08:08:24;40.93;;;2.70;;
1747;SDS011;871;47.034;15.394;2022-08-06T08:10:52;40.70;;;2.20;;
1747;SDS011;871;47.034;15.394;2022-08-06T08:13:18;41.50;;;2.50;;
1747;SDS011;871;47.034;15.394;2022-08-06T08:15:45;40.63;;;2.57;;
1747;SDS011;871;47.034;15.394;2022-08-06T08:18:11;41.23;;;2.70;;
1747;SDS011;871;47.034;15.394;2022-08-06T08:20:38;41.27;;;3.00;;
1747;SDS011;871;47.034;15.394;2022-08-06T08:23:05;41.20;;;2.67;;
1747;SDS011;871;47.034;15.394;2022-08-06T08:25:32;42.37;;;3.13;;
1747;SDS011;871;47.034;15.394;2022-08-06T08:27:58;41.60;;;2.80;;
1747;SDS011;871;47.034;15.394;2022-08-06T08:30:26;42.70;;;3.03;;
1747;SDS011;871;47.034;15.394;2022-08-06T08:32:52;41.30;;;2.67;;
1747;SDS011;871;47.034;15.394;2022-08-06T08:35:18;41.27;;;2.80;;
1747;SDS011;871;47.034;15.394;2022-08-06T08:37:44;41.30;;;2.97;;
1747;SDS011;871;47.034;15.394;2022-08-06T08:40:10;40.60;;;2.60;;
1747;SDS011;871;47.034;15.394;2022-08-06T08:42:42;41.17;;;2.60;;
1747;SDS011;871;47.034;15.394;2022-08-06T08:45:09;42.20;;;2.70;;
1747;SDS011;871;47.034;15.394;2022-08-06T08:47:37;48.13;;;3.40;;
1747;SDS011;871;47.034;15.394;2022-08-06T08:50:03;41.10;;;3.00;;
1747;SDS011;871;47.034;15.394;2022-08-06T08:52:33;40.77;;;2.53;;
1747;SDS011;871;47.034;15.394;2022-08-06T08:55:04;41.77;;;3.40;;
1747;SDS011;871;47.034;15.394;2022-08-06T08:57:30;41.43;;;2.73;;
1747;SDS011;871;47.034;15.394;2022-08-06T08:59:58;41.20;;;2.90;;
1747;SDS011;871;47.034;15.394;2022-08-06T09:02:26;40.77;;;2.40;;
1747;SDS011;871;47.034;15.394;2022-08-06T09:04:52;43.30;;;2.40;;
1747;SDS011;871;47.034;15.394;2022-08-06T09:07:20;41.70;;;2.90;;
1747;SDS011;871;47.034;15.394;2022-08-06T09:09:46;42.47;;;2.80;;
1747;SDS011;871;47.034;15.394;2022-08-06T09:12:12;40.80;;;1.80;;
1747;SDS011;871;47.034;15.394;2022-08-06T09:14:38;41.90;;;3.20;;
1747;SDS011;871;47.034;15.394;2022-08-06T09:17:08;40.43;;;2.07;;
1747;SDS011;871;47.034;15.394;2022-08-06T09:19:35;41.30;;;2.30;;
1747;SDS011;871;47.034;15.394;2022-08-06T09:22:01;41.67;;;2.90;;
1747;SDS011;871;47.034;15.394;2022-08-06T09:24:27;44.23;;;3.33;;
1747;SDS011;871;47.034;15.394;2022-08-06T09:27:03;41.27;;;3.13;;
1747;SDS011;871;47.034;15.394;2022-08-06T09:29:29;41.87;;;2.97;;
1747;SDS011;871;47.034;15.394;2022-08-06T09:31:55;41.10;;;3.07;;
1747;SDS011;871;47.034;15.394;2022-08-06T09:34:22;42.77;;;3.33;;
1747;SDS011;871;47.034;15.394;2022-08-06T09:36:57;41.10;;;2.80;;
1747;SDS011;871;47.034;15.394;2022-08-06T09:39:34;45.17;;;2.90;;
1747;SDS011;871;47.034;15.394;2022-08-06T09:42:00;41.13;;;2.93;;
1747;SDS011;871;47.034;15.394;2022-08-06T09:44:28;41.93;;;3.33;;
1747;SDS011;871;47.034;15.394;2022-08-06T09:46:54;42.20;;;3.40;;
1747;SDS011;871;47.034;15.394;2022-08-06T09:49:20;42.00;;;3.10;;
1747;SDS011;871;47.034;15.394;2022-08-06T09:51:46;41.57;;;3.10;;
1747;SDS011;871;47.034;15.394;2022-08-06T09:54:13;41.80;;;3.47;;
1747;SDS011;871;47.034;15.394;2022-08-06T09:56:43;41.67;;;3.20;;
1747;SDS011;871;47.034;15.394;2022-08-06T09:59:11;41.20;;;3.33;;
1747;SDS011;871;47.034;15.394;2022-08-06T10:01:38;42.10;;;3.40;;
1747;SDS011;871;47.034;15.394;2022-08-06T10:04:05;42.57;;;3.80;;
1747;SDS011;871;47.034;15.394;2022-08-06T10:06:31;41.53;;;3.10;;
1747;SDS011;871;47.034;15.394;2022-08-06T10:09:05;44.50;;;3.07;;
1747;SDS011;871;47.034;15.394;2022-08-06T10:11:37;42.20;;;3.43;;
1747;SDS011;871;47.034;15.394;2022-08-06T10:14:04;41.50;;;2.97;;
1747;SDS011;871;47.034;15.394;2022-08-06T10:16:30;41.90;;;3.00;;
1747;SDS011;871;47.034;15.394;2022-08-06T10:18:57;42.60;;;3.80;;
1747;SDS011;871;47.034;15.394;2022-08-06T10:21:24;42.60;;;3.97;;
1747;SDS011;871;47.034;15.394;2022-08-06T10:23:52;43.63;;;4.50;;
1747;SDS011;871;47.034;15.394;2022-08-06T10:26:22;42.57;;;4.00;;
1747;SDS011;871;47.034;15.394;2022-08-06T10:28:51;41.93;;;3.63;;
1747;SDS011;871;47.034;15.394;2022-08-06T10:31:18;42.60;;;4.03;;
1747;SDS011;871;47.034;15.394;2022-08-06T10:36:15;42.47;;;4.00;;
1747;SDS011;871;47.034;15.394;2022-08-06T10:38:43;42.67;;;3.40;;
1747;SDS011;871;47.034;15.394;2022-08-06T10:41:11;42.90;;;3.90;;
1747;SDS011;871;47.034;15.394;2022-08-06T10:43:37;43.50;;;3.97;;
1747;SDS011;871;47.034;15.394;2022-08-06T10:46:05;41.67;;;3.60;;
1747;SDS011;871;47.034;15.394;2022-08-06T10:48:32;41.90;;;3.83;;
1747;SDS011;871;47.034;15.394;2022-08-06T10:50:58;43.17;;;4.33;;
1747;SDS011;871;47.034;15.394;2022-08-06T10:53:25;42.33;;;3.77;;
1747;SDS011;871;47.034;15.394;2022-08-06T10:55:51;42.80;;;3.90;;
1747;SDS011;871;47.034;15.394;2022-08-06T10:58:17;42.70;;;3.73;;
1747;SDS011;871;47.034;15.394;2022-08-06T11:00:44;41.70;;;3.23;;
1747;SDS011;871;47.034;15.394;2022-08-06T11:03:15;45.67;;;3.80;;
1747;SDS011;871;47.034;15.394;2022-08-06T11:05:43;42.93;;;3.67;;
1747;SDS011;871;47.034;15.394;2022-08-06T11:10:58;41.93;;;3.17;;
1747;SDS011;871;47.034;15.394;2022-08-06T11:13:33;42.07;;;3.40;;
1747;SDS011;871;47.034;15.394;2022-08-06T11:16:01;41.90;;;3.20;;
1747;SDS011;871;47.034;15.394;2022-08-06T11:18:28;42.10;;;3.70;;
1747;SDS011;871;47.034;15.394;2022-08-06T11:20:54;42.33;;;3.80;;
1747;SDS011;871;47.034;15.394;2022-08-06T11:23:27;42.80;;;4.00;;
1747;SDS011;871;47.034;15.394;2022-08-06T11:25:54;42.03;;;3.00;;
1747;SDS011;871;47.034;15.394;2022-08-06T11:30:54;44.83;;;3.83;;
1747;SDS011;871;47.034;15.394;2022-08-06T11:33:21;42.70;;;3.90;;
1747;SDS011;871;47.034;15.394;2022-08-06T11:36:10;41.90;;;3.60;;
1747;SDS011;871;47.034;15.394;2022-08-06T11:54:13;42.10;;;3.77;;
1747;SDS011;871;47.034;15.394;2022-08-06T11:59:24;41.67;;;3.70;;
1747;SDS011;871;47.034;15.394;2022-08-06T12:01:51;41.77;;;3.47;;
1747;SDS011;871;47.034;15.394;2022-08-06T12:07:17;41.77;;;3.17;;
1747;SDS011;871;47.034;15.394;2022-08-06T12:09:46;42.03;;;2.77;;
1747;SDS011;871;47.034;15.394;2022-08-06T12:14:54;41.80;;;3.50;;
1747;SDS011;871;47.034;15.394;2022-08-06T12:17:24;48.77;;;3.77;;
1747;SDS011;871;47.034;15.394;2022-08-06T12:19:52;41.00;;;3.20;;
1747;SDS011;871;47.034;15.394;2022-08-06T12:22:19;42.00;;;3.40;;
1747;SDS011;871;47.034;15.394;2022-08-06T12:24:48;42.40;;;3.83;;
1747;SDS011;871;47.034;15.394;2022-08-06T12:27:15;41.27;;;2.90;;
1747;SDS011;871;47.034;15.394;2022-08-06T12:29:42;42.10;;;3.30;;
1747;SDS011;871;47.034;15.394;2022-08-06T12:34:50;42.30;;;3.37;;
1747;SDS011;871;47.034;15.394;2022-08-06T12:37:17;40.93;;;2.80;;
1747;SDS011;871;47.034;15.394;2022-08-06T12:39:46;41.50;;;3.20;;
1747;SDS011;871;47.034;15.394;2022-08-06T12:42:31;41.67;;;3.40;;
1747;SDS011;871;47.034;15.394;2022-08-06T12:44:57;41.50;;;3.10;;
1747;SDS011;871;47.034;15.394;2022-08-06T12:47:24;41.93;;;3.53;;
1747;SDS011;871;47.034;15.394;2022-08-06T12:49:51;41.90;;;3.27;;
1747;SDS011;871;47.034;15.394;2022-08-06T12:52:18;41.57;;;3.43;;
1747;SDS011;871;47.034;15.394;2022-08-06T12:54:45;43.67;;;3.40;;
1747;SDS011;871;47.034;15.394;2022-08-06T12:57:25;42.90;;;4.00;;
1747;SDS011;871;47.034;15.394;2022-08-06T12:59:51;41.63;;;3.30;;
1747;SDS011;871;47.034;15.394;2022-08-06T13:02:19;41.67;;;3.37;;
1747;SDS011;871;47.034;15.394;2022-08-06T13:04:48;41.43;;;3.10;;
1747;SDS011;871;47.034;15.394;2022-08-06T13:07:15;42.03;;;3.80;;
1747;SDS011;871;47.034;15.394;2022-08-06T13:09:44;42.53;;;3.13;;
1747;SDS011;871;47.034;15.394;2022-08-06T13:12:15;41.77;;;3.50;;
1747;SDS011;871;47.034;15.394;2022-08-06T13:14:48;41.77;;;3.00;;
1747;SDS011;871;47.034;15.394;2022-08-06T13:17:15;41.87;;;3.50;;
1747;SDS011;871;47.034;15.394;2022-08-06T13:19:51;41.97;;;3.60;;
1747;SDS011;871;47.034;15.394;2022-08-06T13:22:17;41.57;;;3.40;;
1747;SDS011;871;47.034;15.394;2022-08-06T13:24:43;41.63;;;3.37;;
1747;SDS011;871;47.034;15.394;2022-08-06T13:27:10;41.27;;;3.10;;
1747;SDS011;871;47.034;15.394;2022-08-06T13:29:35;41.20;;;2.73;;
1747;SDS011;871;47.034;15.394;2022-08-06T13:34:28;41.60;;;3.23;;
1747;SDS011;871;47.034;15.394;2022-08-06T13:36:56;42.77;;;2.87;;
1747;SDS011;871;47.034;15.394;2022-08-06T13:39:29;41.40;;;3.20;;
1747;SDS011;871;47.034;15.394;2022-08-06T13:42:05;41.70;;;3.43;;
1747;SDS011;871;47.034;15.394;2022-08-06T13:44:33;40.93;;;2.20;;
1747;SDS011;871;47.034;15.394;2022-08-06T13:47:01;41.00;;;2.83;;
1747;SDS011;871;47.034;15.394;2022-08-06T13:49:28;41.10;;;3.00;;
1747;SDS011;871;47.034;15.394;2022-08-06T13:51:54;41.70;;;3.37;;
1747;SDS011;871;47.034;15.394;2022-08-06T13:54:24;40.63;;;2.37;;
1747;SDS011;871;47.034;15.394;2022-08-06T13:56:50;41.00;;;2.50;;
1747;SDS011;871;47.034;15.394;2022-08-06T13:59:17;40.77;;;2.80;;
1747;SDS011;871;47.034;15.394;2022-08-06T14:01:44;41.30;;;2.90;;
1747;SDS011;871;47.034;15.394;2022-08-06T14:04:10;42.57;;;3.00;;
1747;SDS011;871;47.034;15.394;2022-08-06T14:06:36;42.67;;;2.60;;
1747;SDS011;871;47.034;15.394;2022-08-06T14:09:04;41.07;;;2.60;;
1747;SDS011;871;47.034;15.394;2022-08-06T14:11:30;41.80;;;3.43;;
1747;SDS011;871;47.034;15.394;2022-08-06T14:13:56;41.10;;;2.40;;
1747;SDS011;871;47.034;15.394;2022-08-06T14:16:22;41.37;;;2.23;;
1747;SDS011;871;47.034;15.394;2022-08-06T14:18:48;41.07;;;3.10;;
1747;SDS011;871;47.034;15.394;2022-08-06T14:21:14;40.50;;;2.33;;
1747;SDS011;871;47.034;15.394;2022-08-06T14:23:41;41.07;;;2.47;;
1747;SDS011;871;47.034;15.394;2022-08-06T14:26:08;42.93;;;2.60;;
1747;SDS011;871;47.034;15.394;2022-08-06T14:28:34;41.67;;;3.27;;
1747;SDS011;871;47.034;15.394;2022-08-06T14:31:00;41.07;;;3.20;;
1747;SDS011;871;47.034;15.394;2022-08-06T14:33:26;41.17;;;2.43;;
1747;SDS011;871;47.034;15.394;2022-08-06T14:35:52;40.63;;;2.30;;
1747;SDS011;871;47.034;15.394;2022-08-06T14:38:19;40.40;;;2.10;;
1747;SDS011;871;47.034;15.394;2022-08-06T14:40:45;41.57;;;2.73;;
1747;SDS011;871;47.034;15.394;2022-08-06T14:43:30;40.50;;;2.00;;
1747;SDS011;871;47.034;15.394;2022-08-06T14:46:15;40.60;;;2.57;;
1747;SDS011;871;47.034;15.394;2022-08-06T14:48:41;41.53;;;3.90;;
1747;SDS011;871;47.034;15.394;2022-08-06T14:51:07;44.70;;;6.20;;
1747;SDS011;871;47.034;15.394;2022-08-06T14:53:33;40.97;;;2.53;;
1747;SDS011;871;47.034;15.394;2022-08-06T14:55:59;41.07;;;2.53;;
1747;SDS011;871;47.034;15.394;2022-08-06T14:58:25;40.33;;;1.87;;
1747;SDS011;871;47.034;15.394;2022-08-06T15:00:51;44.28;;;4.50;;
1747;SDS011;871;47.034;15.394;2022-08-06T15:03:17;59.03;;;11.27;;
1747;SDS011;871;47.034;15.394;2022-08-06T15:05:45;42.00;;;2.23;;
1747;SDS011;871;47.034;15.394;2022-08-06T15:08:11;41.40;;;2.30;;
1747;SDS011;871;47.034;15.394;2022-08-06T15:10:37;40.37;;;1.90;;
1747;SDS011;871;47.034;15.394;2022-08-06T15:13:04;40.27;;;1.90;;
1747;SDS011;871;47.034;15.394;2022-08-06T15:15:32;40.40;;;2.23;;
1747;SDS011;871;47.034;15.394;2022-08-06T15:17:58;40.63;;;2.00;;
1747;SDS011;871;47.034;15.394;2022-08-06T15:20:24;40.97;;;2.40;;
1747;SDS011;871;47.034;15.394;2022-08-06T15:22:50;40.77;;;2.20;;
1747;SDS011;871;47.034;15.394;2022-08-06T15:25:16;40.40;;;1.87;;
1747;SDS011;871;47.034;15.394;2022-08-06T15:27:43;40.90;;;2.60;;
1747;SDS011;871;47.034;15.394;2022-08-06T15:30:10;41.60;;;2.47;;
1747;SDS011;871;47.034;15.394;2022-08-06T15:32:36;41.07;;;2.90;;
1747;SDS011;871;47.034;15.394;2022-08-06T15:35:03;43.63;;;6.23;;
1747;SDS011;871;47.034;15.394;2022-08-06T15:37:29;41.00;;;2.37;;
1747;SDS011;871;47.034;15.394;2022-08-06T15:39:55;42.93;;;5.07;;
1747;SDS011;871;47.034;15.394;2022-08-06T15:42:23;41.10;;;2.83;;
1747;SDS011;871;47.034;15.394;2022-08-06T15:44:51;40.67;;;2.13;;
1747;SDS011;871;47.034;15.394;2022-08-06T15:47:18;40.53;;;1.90;;
1747;SDS011;871;47.034;15.394;2022-08-06T15:49:44;40.67;;;1.97;;
1747;SDS011;871;47.034;15.394;2022-08-06T15:52:10;40.23;;;2.10;;
1747;SDS011;871;47.034;15.394;2022-08-06T15:54:36;40.67;;;2.80;;
1747;SDS011;871;47.034;15.394;2022-08-06T15:57:02;40.33;;;2.00;;
1747;SDS011;871;47.034;15.394;2022-08-06T15:59:28;40.30;;;2.10;;
1747;SDS011;871;47.034;15.394;2022-08-06T16:01:54;41.03;;;2.10;;
1747;SDS011;871;47.034;15.394;2022-08-06T16:04:20;41.30;;;2.10;;
1747;SDS011;871;47.034;15.394;2022-08-06T16:06:46;40.60;;;1.80;;
1747;SDS011;871;47.034;15.394;2022-08-06T16:09:12;40.03;;;1.70;;
1747;SDS011;871;47.034;15.394;2022-08-06T16:11:38;40.77;;;1.83;;